createdAt,value
2022-12-13T00:03:19.612Z,0
2022-12-13T00:08:20.195Z,0
2022-12-13T00:13:19.723Z,0
2022-12-13T00:18:19.544Z,0
2022-12-13T00:23:20.828Z,0
2022-12-13T00:28:19.540Z,0
2022-12-13T00:33:19.854Z,0
2022-12-13T00:38:19.553Z,0
2022-12-13T00:43:19.901Z,0
2022-12-13T00:48:19.535Z,0
2022-12-13T00:53:19.555Z,0
2022-12-13T00:58:19.582Z,0
2022-12-13T01:03:19.635Z,0
2022-12-13T01:08:19.635Z,0
2022-12-13T01:13:19.652Z,0
2022-12-13T01:18:20.095Z,0
2022-12-13T01:23:19.954Z,0
2022-12-13T01:28:19.564Z,0
2022-12-13T01:33:19.561Z,0
2022-12-13T01:38:19.851Z,0
2022-12-13T01:43:19.555Z,0
2022-12-13T01:48:19.642Z,0
2022-12-13T01:53:19.563Z,0
2022-12-13T01:58:19.572Z,0
2022-12-13T02:03:21.999Z,0
2022-12-13T02:08:19.672Z,0
2022-12-13T02:13:19.574Z,0
2022-12-13T02:18:19.629Z,0
2022-12-13T02:23:19.552Z,0
2022-12-13T02:28:21.655Z,0
2022-12-13T02:33:21.407Z,0
2022-12-13T02:38:24.378Z,0
2022-12-13T02:43:21.231Z,0
2022-12-13T02:48:19.651Z,0
2022-12-13T02:53:19.614Z,0
2022-12-13T02:58:19.597Z,0
2022-12-13T03:03:19.710Z,0
2022-12-13T03:08:19.837Z,0
2022-12-13T03:13:19.835Z,0
2022-12-13T03:18:19.650Z,0
2022-12-13T03:23:19.793Z,0
2022-12-13T03:28:19.604Z,0
2022-12-13T03:33:19.621Z,0
2022-12-13T03:38:21.629Z,0
2022-12-13T03:43:21.914Z,0
2022-12-13T03:48:21.804Z,0
2022-12-13T03:53:21.920Z,0
2022-12-13T03:58:19.682Z,0
2022-12-13T04:03:19.682Z,0
2022-12-13T04:08:23.223Z,0
2022-12-13T04:13:19.646Z,0
2022-12-13T04:18:19.695Z,0
2022-12-13T04:23:19.602Z,0
2022-12-13T04:28:21.665Z,0
2022-12-13T04:33:19.625Z,0
2022-12-13T04:38:19.825Z,0
2022-12-13T04:43:19.658Z,0
2022-12-13T04:48:30.237Z,0
2022-12-13T04:53:19.621Z,0
2022-12-13T04:58:22.940Z,0
2022-12-13T05:03:19.690Z,0
2022-12-13T05:08:19.644Z,0
2022-12-13T05:13:19.659Z,0
2022-12-13T05:18:19.609Z,0
2022-12-13T05:23:22.515Z,0
2022-12-13T05:28:27.320Z,0
2022-12-13T05:33:20.017Z,0
2022-12-13T05:38:19.976Z,0
2022-12-13T05:43:22.387Z,0
2022-12-13T05:48:24.711Z,0
2022-12-13T05:53:30.443Z,0
2022-12-13T05:58:23.187Z,0
2022-12-13T06:03:19.729Z,0
2022-12-13T06:08:24.130Z,0
2022-12-13T06:13:31.638Z,0
2022-12-13T06:18:19.576Z,0
2022-12-13T06:23:19.635Z,0
2022-12-13T06:28:19.645Z,0
2022-12-13T06:33:23.345Z,0
2022-12-13T06:38:22.129Z,257
2022-12-13T06:43:19.588Z,259
2022-12-13T06:48:20.359Z,263
2022-12-13T06:53:20.566Z,268
2022-12-13T06:58:19.586Z,274
2022-12-13T07:03:20.111Z,283
2022-12-13T07:08:22.178Z,295
2022-12-13T07:13:19.642Z,311
2022-12-13T07:18:19.621Z,324
2022-12-13T07:23:24.292Z,344
2022-12-13T07:28:19.640Z,362
2022-12-13T07:33:22.310Z,384
2022-12-13T07:38:19.650Z,410
2022-12-13T07:43:19.907Z,433
2022-12-13T07:48:19.629Z,448
2022-12-13T07:53:19.926Z,460
2022-12-13T07:58:19.644Z,463
2022-12-13T08:03:24.844Z,490
2022-12-13T08:08:20.623Z,505
2022-12-13T08:13:19.834Z,562
2022-12-13T08:18:19.612Z,592
2022-12-13T08:23:19.869Z,622
2022-12-13T08:28:19.716Z,639
2022-12-13T08:33:20.065Z,681
2022-12-13T08:38:22.700Z,690
2022-12-13T08:43:19.909Z,711
2022-12-13T08:48:19.839Z,743
2022-12-13T08:53:28.821Z,774
2022-12-13T08:58:19.744Z,740
2022-12-13T09:03:20.218Z,770
2022-12-13T09:08:23.793Z,742
2022-12-13T09:13:31.008Z,722
2022-12-13T09:18:24.073Z,721
2022-12-13T09:23:23.260Z,695
2022-12-13T09:28:19.935Z,690
2022-12-13T09:38:20.002Z,629
2022-12-13T09:43:23.760Z,637
2022-12-13T09:48:22.248Z,638
2022-12-13T09:53:21.990Z,623
2022-12-13T09:58:20.068Z,655
2022-12-13T10:03:20.274Z,628
2022-12-13T10:08:19.668Z,654
2022-12-13T10:13:19.720Z,623
2022-12-13T10:18:20.161Z,606
2022-12-13T10:23:36.036Z,593
2022-12-13T10:28:19.667Z,559
2022-12-13T10:33:24.555Z,552
2022-12-13T10:38:19.802Z,534
2022-12-13T10:43:19.680Z,547
2022-12-13T10:48:19.721Z,550
2022-12-13T10:53:19.674Z,547
2022-12-13T10:58:19.646Z,585
2022-12-13T11:03:19.653Z,599
2022-12-13T11:08:19.677Z,547
2022-12-13T11:13:19.675Z,527
2022-12-13T11:18:19.783Z,513
2022-12-13T11:23:19.656Z,544
2022-12-13T11:28:25.632Z,530
2022-12-13T11:33:19.845Z,534
2022-12-13T11:38:19.899Z,520
2022-12-13T11:43:21.650Z,495
2022-12-13T11:48:19.666Z,556
2022-12-13T11:53:19.691Z,629
2022-12-13T11:58:38.811Z,735
2022-12-13T12:03:19.884Z,582
2022-12-13T12:08:31.513Z,522
2022-12-13T12:13:19.950Z,560
2022-12-13T12:18:19.653Z,521
2022-12-13T12:23:19.927Z,628
2022-12-13T12:28:19.747Z,944
2022-12-13T12:33:19.747Z,696
2022-12-13T12:38:20.223Z,584
2022-12-13T12:43:19.678Z,546
2022-12-13T12:48:58.831Z,565
2022-12-13T12:53:19.681Z,473
2022-12-13T12:58:19.842Z,510
2022-12-13T13:03:23.081Z,507
2022-12-13T13:08:19.701Z,482
2022-12-13T13:13:32.756Z,460
2022-12-13T13:18:19.678Z,422
2022-12-13T13:23:39.192Z,401
2022-12-13T13:28:19.668Z,398
2022-12-13T13:33:19.660Z,397
2022-12-13T13:38:19.720Z,370
2022-12-13T13:43:19.685Z,374
2022-12-13T13:48:19.790Z,372
2022-12-13T13:53:20.367Z,370
2022-12-13T13:58:21.498Z,393
2022-12-13T14:03:29.421Z,361
2022-12-13T14:08:20.531Z,334
2022-12-13T14:13:19.685Z,357
2022-12-13T14:18:21.065Z,345
2022-12-13T14:23:21.644Z,315
2022-12-13T14:28:19.698Z,324
2022-12-13T14:33:19.932Z,317
2022-12-13T14:38:19.763Z,311
2022-12-13T14:43:23.824Z,308
2022-12-13T14:48:28.172Z,295
2022-12-13T14:53:19.714Z,283
2022-12-13T14:58:20.769Z,274
2022-12-13T15:03:19.743Z,268
2022-12-13T15:08:19.810Z,266
2022-12-13T15:13:19.691Z,263
2022-12-13T15:18:19.728Z,261
2022-12-13T15:23:19.789Z,259
2022-12-13T15:28:21.770Z,256
2022-12-13T15:33:19.705Z,256
2022-12-13T15:38:28.088Z,0
2022-12-13T15:43:19.698Z,0
2022-12-13T15:48:19.712Z,0
2022-12-13T15:53:19.758Z,0
2022-12-13T15:58:19.682Z,0
2022-12-13T16:03:19.739Z,0
2022-12-13T16:08:19.736Z,0
2022-12-13T16:13:25.961Z,0
2022-12-13T16:18:19.734Z,0
2022-12-13T16:23:26.520Z,0
2022-12-13T16:28:19.738Z,0
2022-12-13T16:33:26.968Z,0
2022-12-13T16:38:26.295Z,0
2022-12-13T16:43:19.867Z,0
2022-12-13T16:48:19.792Z,0
2022-12-13T16:53:41.937Z,0
2022-12-13T16:59:49.046Z,0
2022-12-13T17:04:49.054Z,0
2022-12-13T17:09:48.972Z,0
2022-12-13T17:14:49.020Z,0
2022-12-13T17:19:49.233Z,0
2022-12-13T17:24:48.993Z,0
2022-12-13T17:29:49.179Z,0
2022-12-13T17:34:49.130Z,0
2022-12-13T17:39:49.293Z,0
2022-12-13T17:44:49.072Z,0
2022-12-13T17:49:48.994Z,0
2022-12-13T17:54:49.030Z,0
2022-12-13T17:59:49.032Z,0
2022-12-13T18:04:49.053Z,0
2022-12-13T18:09:49.120Z,0
2022-12-13T18:14:48.991Z,0
2022-12-13T18:19:49.029Z,0
2022-12-13T18:24:49.067Z,0
2022-12-13T18:29:54.976Z,0
2022-12-13T18:34:49.026Z,0
2022-12-13T18:39:54.519Z,0
2022-12-13T18:44:50.854Z,0
2022-12-13T18:49:54.803Z,0
2022-12-13T18:54:54.315Z,0
2022-12-13T18:59:54.409Z,0
2022-12-13T19:04:55.169Z,0
2022-12-13T19:09:54.585Z,0
2022-12-13T19:14:54.396Z,0
2022-12-13T19:19:49.021Z,0
2022-12-13T19:24:49.039Z,0
2022-12-13T19:29:49.014Z,0
2022-12-13T19:34:53.324Z,0
2022-12-13T19:44:49.131Z,0
2022-12-13T19:49:49.005Z,0
2022-12-13T19:54:49.011Z,0
2022-12-13T19:59:49.094Z,0
2022-12-13T20:04:49.059Z,0
2022-12-13T20:09:49.124Z,0
2022-12-13T20:14:49.048Z,0
2022-12-13T20:19:49.036Z,0
2022-12-13T20:24:49.009Z,0
2022-12-13T20:29:49.031Z,0
2022-12-13T20:34:53.155Z,0
2022-12-13T20:39:49.518Z,0
2022-12-13T20:44:49.154Z,0
2022-12-13T20:49:49.264Z,0
2022-12-13T20:54:49.166Z,0
2022-12-13T20:59:49.071Z,0
2022-12-13T21:04:49.039Z,0
2022-12-13T21:09:49.162Z,0
2022-12-13T21:14:49.028Z,0
2022-12-13T21:19:49.060Z,0
2022-12-13T21:24:49.059Z,0
2022-12-13T21:29:49.050Z,0
2022-12-13T21:34:49.042Z,0
2022-12-13T21:39:49.141Z,0
2022-12-13T21:44:49.128Z,0
2022-12-13T21:49:49.094Z,0
2022-12-13T21:54:50.939Z,0
2022-12-13T21:59:49.184Z,0
2022-12-13T22:04:49.083Z,0
2022-12-13T22:09:49.181Z,0
2022-12-13T22:14:50.626Z,0
2022-12-13T22:19:49.227Z,0
2022-12-13T22:24:53.394Z,0
2022-12-13T22:29:49.068Z,0
2022-12-13T22:34:49.080Z,0
2022-12-13T22:39:49.102Z,0
2022-12-13T22:44:49.108Z,0
2022-12-13T22:49:49.170Z,0
2022-12-13T22:54:49.096Z,0
2022-12-13T22:59:49.048Z,0
2022-12-13T23:04:49.417Z,0
2022-12-13T23:09:49.065Z,0
2022-12-13T23:14:49.166Z,0
2022-12-13T23:19:53.300Z,0
2022-12-13T23:24:49.053Z,0
2022-12-13T23:29:49.534Z,0
2022-12-13T23:34:49.091Z,0
2022-12-13T23:39:49.059Z,0
2022-12-13T23:44:49.275Z,0
2022-12-13T23:49:49.164Z,0
2022-12-13T23:54:49.091Z,0
2022-12-13T23:59:49.060Z,0
